Time;durP1;ratioP1;P1;durP2;ratioP2;P2;SDS_P1;SDS_P2;PMS_P1;PMS_P2;Temp;Humidity;BMP_temperature;BMP_pressure;BME280_temperature;BME280_humidity;BME280_pressure;Samples;Min_cycle;Max_cycle;Signal;HPM_P1;HPM_P2
2022/06/21 00:01:05;;;;;;;12.45;5.55;;;;;;;12.65;79.03;101668.00;5072748;28;20103;-69
2022/06/21 00:03:31;;;;;;;12.68;5.72;;;;;;;12.59;78.76;101659.41;5072449;28;20472;-69
2022/06/21 00:05:57;;;;;;;8.38;5.55;;;;;;;12.46;79.42;101665.72;5071701;28;20070;-69
2022/06/21 00:08:25;;;;;;;11.57;6.43;;;;;;;12.31;80.48;101662.50;5072859;28;20055;-69
2022/06/21 00:10:51;;;;;;;8.70;5.35;;;;;;;12.30;81.24;101665.16;5072452;28;20039;-69
2022/06/21 00:13:29;;;;;;;10.18;5.78;;;;;;;12.27;80.44;101659.97;5071854;28;20091;-69
2022/06/21 00:15:58;;;;;;;8.68;6.05;;;;;;;12.24;81.38;101657.41;5072154;28;20495;-69
2022/06/21 00:18:25;;;;;;;11.00;5.72;;;;;;;12.11;81.45;101670.69;5072162;28;20025;-69
2022/06/21 00:20:52;;;;;;;9.73;5.55;;;;;;;12.10;82.04;101673.34;5072387;28;20025;-68
2022/06/21 00:23:21;;;;;;;8.90;5.28;;;;;;;12.13;82.08;101671.53;5072606;28;20032;-69
2022/06/21 00:25:47;;;;;;;11.07;6.25;;;;;;;12.18;82.39;101668.81;5071216;28;20052;-69
2022/06/21 00:28:16;;;;;;;8.80;5.65;;;;;;;12.14;83.04;101669.78;5072332;28;20025;-69
2022/06/21 00:30:42;;;;;;;10.02;5.68;;;;;;;12.12;82.58;101661.94;5074467;28;20403;-69
2022/06/21 00:33:11;;;;;;;9.10;5.90;;;;;;;12.16;82.31;101652.28;5075500;28;20100;-69
2022/06/21 00:35:37;;;;;;;13.65;5.85;;;;;;;12.12;82.63;101650.63;5076044;28;20021;-69
2022/06/21 00:38:03;;;;;;;10.35;5.80;;;;;;;12.07;82.04;101655.09;5076188;28;20028;-69
2022/06/21 00:40:33;;;;;;;9.40;5.47;;;;;;;11.94;82.94;101657.91;5075325;28;20036;-68
2022/06/21 00:43:23;;;;;;;7.97;6.07;;;;;;;11.95;81.99;101658.75;5075976;28;20020;-69
2022/06/21 00:45:50;;;;;;;11.88;6.57;;;;;;;11.87;83.69;101664.13;5072856;28;20400;-69
2022/06/21 00:48:36;;;;;;;10.57;6.65;;;;;;;11.83;83.73;101666.75;5075240;28;20059;-69
2022/06/21 00:51:08;;;;;;;9.57;6.03;;;;;;;11.71;83.83;101662.59;5075703;28;20067;-69
2022/06/21 00:53:37;;;;;;;10.07;5.53;;;;;;;11.68;84.90;101650.44;5074812;28;20040;-69
2022/06/21 00:56:22;;;;;;;11.05;5.72;;;;;;;11.69;82.84;101649.53;5075980;28;20025;-69
2022/06/21 00:58:48;;;;;;;8.48;6.03;;;;;;;11.61;84.41;101653.16;5075486;28;20033;-69
2022/06/21 01:01:26;;;;;;;12.85;6.53;;;;;;;11.63;84.08;101644.41;5074853;28;20033;-69
2022/06/21 01:03:53;;;;;;;11.30;5.80;;;;;;;11.64;85.20;101626.97;5075366;28;20021;-69
2022/06/21 01:06:27;;;;;;;12.32;6.20;;;;;;;11.61;84.85;101622.69;5075779;28;20024;-69
2022/06/21 01:09:00;;;;;;;11.10;6.65;;;;;;;11.64;84.28;101616.53;5074649;28;20037;-69
2022/06/21 01:11:33;;;;;;;14.25;6.35;;;;;;;11.67;84.64;101612.16;5075639;28;20427;-69
2022/06/21 01:14:00;;;;;;;11.52;6.45;;;;;;;11.67;85.02;101606.03;5075480;28;20028;-69
2022/06/21 01:16:28;;;;;;;10.60;6.53;;;;;;;11.59;85.36;101600.94;5074538;28;20099;-69
2022/06/21 01:18:53;;;;;;;11.65;6.70;;;;;;;11.63;85.82;101617.44;5075198;28;20032;-69
2022/06/21 01:21:21;;;;;;;11.60;6.72;;;;;;;11.57;85.70;101620.97;5075260;28;20361;-69
2022/06/21 01:24:13;;;;;;;12.60;7.07;;;;;;;11.58;85.07;101620.13;5074232;28;20452;-69
2022/06/21 01:26:44;;;;;;;11.60;6.22;;;;;;;11.64;86.05;101619.13;5074922;28;20032;-68
2022/06/21 01:29:14;;;;;;;13.95;6.88;;;;;;;11.71;85.65;101615.56;5074594;28;20025;-69
2022/06/21 01:31:39;;;;;;;12.00;6.50;;;;;;;11.74;85.54;101612.91;5074796;28;20021;-69
2022/06/21 01:34:21;;;;;;;11.55;7.13;;;;;;;11.66;85.01;101606.94;5074972;28;20108;-69
2022/06/21 01:36:55;;;;;;;9.52;6.78;;;;;;;11.63;85.93;101617.44;5073796;28;20043;-69
2022/06/21 01:39:25;;;;;;;13.15;7.25;;;;;;;11.56;86.10;101619.28;5074931;28;20030;-68
2022/06/21 01:42:19;;;;;;;9.10;6.93;;;;;;;11.53;84.87;101619.31;5074650;28;20366;-69
2022/06/21 01:44:50;;;;;;;14.88;7.35;;;;;;;11.49;86.08;101605.44;5065563;28;20116;-69
2022/06/21 01:47:22;;;;;;;11.38;6.57;;;;;;;11.55;86.20;101612.34;5074824;28;20020;-68
2022/06/21 01:49:57;;;;;;;12.43;7.32;;;;;;;11.54;86.20;101607.13;5074472;28;20033;-69
2022/06/21 01:52:34;;;;;;;12.25;7.22;;;;;;;11.51;86.41;101613.28;5074639;28;20476;-69
2022/06/21 01:55:03;;;;;;;15.07;7.68;;;;;;;11.40;86.44;101618.63;5074635;28;20044;-69
2022/06/21 01:57:29;;;;;;;12.02;7.45;;;;;;;11.34;86.79;101607.41;5073852;28;20035;-69
2022/06/21 01:59:58;;;;;;;11.88;7.78;;;;;;;11.30;86.52;101600.53;5074326;28;20024;-69
2022/06/21 02:02:29;;;;;;;12.68;7.60;;;;;;;11.33;87.20;101611.78;5074466;28;20412;-69
2022/06/21 02:05:03;;;;;;;9.45;7.15;;;;;;;11.23;87.17;101616.25;5073515;28;20043;-69
2022/06/21 02:07:34;;;;;;;14.40;7.90;;;;;;;11.23;87.73;101602.34;5074577;28;20025;-68
2022/06/21 02:10:11;;;;;;;15.98;8.50;;;;;;;11.24;87.68;101601.47;5074452;28;20419;-69
2022/06/21 02:12:44;;;;;;;10.85;7.70;;;;;;;11.18;87.61;101611.97;5073117;28;20039;-69
2022/06/21 02:15:20;;;;;;;14.73;7.43;;;;;;;11.09;87.39;101602.56;5074310;28;20028;-69
2022/06/21 02:17:47;;;;;;;11.45;7.60;;;;;;;10.96;88.11;101599.25;5074050;28;20111;-69
2022/06/21 02:20:27;;;;;;;15.27;8.45;;;;;;;10.92;87.99;101605.38;5073385;28;20099;-68
2022/06/21 02:22:52;;;;;;;12.32;7.82;;;;;;;10.82;88.80;101598.53;5073859;28;20059;-69
2022/06/21 02:25:21;;;;;;;14.00;8.38;;;;;;;10.73;89.31;101604.75;5073355;28;20790;-69
2022/06/21 02:27:48;;;;;;;13.55;9.00;;;;;;;10.66;89.75;101603.09;5073876;28;20472;-69
2022/06/21 02:30:17;;;;;;;11.48;8.38;;;;;;;10.68;90.33;101593.47;5074079;28;20048;-69
2022/06/21 02:32:43;;;;;;;10.52;8.15;;;;;;;10.69;89.85;101582.19;5072758;28;20024;-69
2022/06/21 02:35:38;;;;;;;13.93;8.40;;;;;;;10.70;89.14;101567.41;5073811;28;20032;-68
2022/06/21 02:38:09;;;;;;;12.90;8.63;;;;;;;10.59;89.61;101570.13;5073973;28;20039;-69
2022/06/21 02:40:39;;;;;;;16.30;8.23;;;;;;;10.48;89.77;101583.28;5072858;28;20059;-69
2022/06/21 02:43:19;;;;;;;15.80;8.95;;;;;;;10.37;90.41;101582.56;5073718;28;20465;-68
2022/06/21 02:45:47;;;;;;;16.75;8.50;;;;;;;10.38;90.84;101586.03;5073509;28;20024;-69
2022/06/21 02:48:31;;;;;;;12.60;8.48;;;;;;;10.42;90.47;101585.97;5072687;28;20494;-68
2022/06/21 02:51:07;;;;;;;16.15;9.13;;;;;;;10.46;90.52;101576.34;5073492;28;20025;-69
2022/06/21 02:53:38;;;;;;;14.32;9.20;;;;;;;10.45;90.03;101567.69;5071863;28;20053;-69
2022/06/21 02:56:22;;;;;;;12.32;8.50;;;;;;;10.41;89.55;101579.03;5073494;28;20077;-69
2022/06/21 02:58:51;;;;;;;13.18;9.52;;;;;;;10.30;90.46;101583.50;5073262;28;20054;-68
2022/06/21 03:01:34;;;;;;;17.92;8.98;;;;;;;10.29;90.21;101597.41;5072720;28;20035;-68
2022/06/21 03:03:59;;;;;;;16.45;8.55;;;;;;;10.27;90.72;101588.75;5073586;28;20456;-69
2022/06/21 03:06:27;;;;;;;16.48;9.13;;;;;;;10.31;91.27;101580.00;5073441;28;20036;-68
2022/06/21 03:09:03;;;;;;;16.95;9.05;;;;;;;10.32;90.67;101582.59;5071990;28;20049;-69
2022/06/21 03:11:34;;;;;;;16.75;8.85;;;;;;;10.28;90.30;101580.03;5073375;28;20103;-68
2022/06/21 03:14:06;;;;;;;13.40;8.82;;;;;;;10.22;90.06;101577.47;5073408;28;20036;-69
2022/06/21 03:16:32;;;;;;;17.15;9.05;;;;;;;10.19;90.43;101585.31;5072433;28;20077;-68
2022/06/21 03:19:01;;;;;;;18.38;8.75;;;;;;;10.03;91.60;101588.06;5073145;28;20028;-69
2022/06/21 03:21:30;;;;;;;10.77;8.50;;;;;;;10.05;91.92;101599.34;5072171;28;20462;-69
2022/06/21 03:23:57;;;;;;;16.13;9.57;;;;;;;10.12;92.40;101588.84;5072906;28;20032;-68
2022/06/21 03:26:23;;;;;;;15.10;8.82;;;;;;;10.07;92.19;101574.16;5073056;28;20032;-68
2022/06/21 03:28:51;;;;;;;13.85;9.13;;;;;;;10.07;91.84;101592.38;5071844;28;20035;-68
2022/06/21 03:31:22;;;;;;;19.15;10.13;;;;;;;10.03;92.45;101588.06;5073055;28;20111;-68
2022/06/21 03:33:50;;;;;;;16.65;10.43;;;;;;;10.11;92.78;101584.53;5072644;28;20032;-69
2022/06/21 03:36:20;;;;;;;17.20;9.68;;;;;;;10.12;92.38;101583.66;5071957;28;20469;-69
2022/06/21 03:38:51;;;;;;;17.85;9.45;;;;;;;10.08;92.35;101573.25;5072744;28;20070;-69
2022/06/21 03:44:30;;;;;;;16.38;9.52;;;;;;;10.06;92.09;101569.78;5072377;28;20502;-68
2022/06/21 03:47:03;;;;;;;16.30;9.43;;;;;;;10.11;92.35;101561.09;5072673;28;20025;-68
2022/06/21 03:49:35;;;;;;;15.93;9.93;;;;;;;10.09;92.66;101555.88;5071955;28;20060;-68
2022/06/21 03:52:06;;;;;;;17.75;10.32;;;;;;;10.14;93.15;101563.66;5072693;28;20461;-69
2022/06/21 03:54:38;;;;;;;18.35;10.13;;;;;;;10.07;93.27;101555.91;5072628;28;20057;-68
2022/06/21 03:57:18;;;;;;;18.38;10.60;;;;;;;10.16;93.41;101562.75;5071779;28;20040;-69
2022/06/21 03:59:53;;;;;;;19.83;10.85;;;;;;;10.19;94.09;101564.47;5072616;28;20032;-68
2022/06/21 04:02:33;;;;;;;19.42;12.73;;;;;;;10.22;93.76;101567.91;5072937;28;20117;-68
2022/06/21 04:05:29;;;;;;;21.75;11.80;;;;;;;10.31;94.33;101573.06;5073477;28;20102;-68
2022/06/21 04:08:06;;;;;;;15.98;10.80;;;;;;;10.45;93.13;101575.50;5076580;28;20036;-68
2022/06/21 04:10:49;;;;;;;21.23;11.27;;;;;;;10.59;92.57;101566.66;5075806;28;20484;-68
2022/06/21 04:13:41;;;;;;;18.73;10.43;;;;;;;10.63;92.67;101576.19;5076581;28;20035;-68
2022/06/21 04:16:35;;;;;;;14.95;10.90;;;;;;;10.67;92.00;101564.84;5076711;28;20039;-68
2022/06/21 04:19:03;;;;;;;18.25;11.52;;;;;;;10.73;92.59;101567.38;5076074;28;20020;-68
2022/06/21 04:21:44;;;;;;;18.02;10.90;;;;;;;10.82;92.32;101556.78;5076569;28;20362;-68
2022/06/21 04:24:24;;;;;;;20.30;10.75;;;;;;;10.87;92.41;101562.81;5076620;28;20047;-69
2022/06/21 04:26:59;;;;;;;17.63;11.75;;;;;;;10.92;91.97;101561.03;5075489;28;20024;-68
2022/06/21 04:29:33;;;;;;;17.73;11.05;;;;;;;10.96;92.04;101561.84;5076380;28;20028;-68
2022/06/21 04:32:17;;;;;;;18.83;12.20;;;;;;;11.03;91.57;101558.28;5075532;28;20056;-69
2022/06/21 04:34:45;;;;;;;;;;;;;;;11.09;89.22;101555.59;5077018;28;20020;-68
2022/06/21 04:37:14;;;;;;;18.00;11.27;;;;;;;11.14;90.74;101543.31;5076380;28;19916;-69
2022/06/21 04:39:52;;;;;;;19.23;11.80;;;;;;;11.18;90.78;101544.13;5075086;28;20032;-69
2022/06/21 04:42:30;;;;;;;19.23;11.45;;;;;;;11.25;90.88;101548.41;5076112;28;20036;-69
2022/06/21 04:45:02;;;;;;;17.80;10.52;;;;;;;11.32;90.39;101542.19;5075626;28;20042;-69
2022/06/21 04:47:36;;;;;;;22.33;10.10;;;;;;;11.40;90.38;101540.31;5075445;28;20418;-69
2022/06/21 04:50:19;;;;;;;13.85;9.55;;;;;;;11.45;89.10;101530.66;5076060;28;20048;-68
2022/06/21 04:52:57;;;;;;;18.25;9.68;;;;;;;11.56;89.41;101540.94;5075076;28;20024;-69
2022/06/21 04:55:45;;;;;;;15.35;9.88;;;;;;;11.62;88.10;101534.75;5076013;28;20040;-69
2022/06/21 04:58:12;;;;;;;18.52;9.75;;;;;;;11.70;88.58;101535.47;5075809;28;20446;-68
2022/06/21 05:00:37;;;;;;;15.05;9.73;;;;;;;11.74;87.85;101529.31;5074660;28;20028;-69
2022/06/21 05:03:19;;;;;;;14.60;10.30;;;;;;;11.81;87.51;101536.16;5075723;28;20039;-68
2022/06/21 05:05:46;;;;;;;17.33;9.13;;;;;;;11.86;86.96;101533.50;5075489;28;20058;-68
2022/06/21 05:08:19;;;;;;;14.77;9.07;;;;;;;11.93;86.94;101537.72;5074815;28;20035;-69
2022/06/21 05:10:48;;;;;;;16.25;8.50;;;;;;;11.95;86.33;101539.41;5075377;28;20029;-69
2022/06/21 05:13:38;;;;;;;13.13;8.15;;;;;;;12.03;85.79;101543.63;5075661;28;20115;-68
2022/06/21 05:16:14;;;;;;;14.60;8.07;;;;;;;12.05;85.25;101545.34;5073923;28;20032;-69
2022/06/21 05:18:44;;;;;;;14.68;8.75;;;;;;;12.08;85.89;101534.81;5075232;28;20048;-69
2022/06/21 05:21:14;;;;;;;15.77;8.70;;;;;;;12.12;86.20;101526.03;5074606;28;20350;-69
2022/06/21 05:23:40;;;;;;;15.90;7.68;;;;;;;12.17;85.67;101523.34;5075144;28;20063;-69
2022/06/21 05:26:14;;;;;;;15.38;7.38;;;;;;;12.26;85.40;101523.16;5075232;28;20056;-68
2022/06/21 05:28:49;;;;;;;17.17;7.25;;;;;;;12.32;84.19;101523.03;5074058;28;20025;-69
2022/06/21 05:31:20;;;;;;;16.70;8.20;;;;;;;12.39;83.76;101529.00;5075057;28;20464;-70
2022/06/21 05:33:54;;;;;;;11.65;6.82;;;;;;;12.43;85.05;101538.53;5074981;28;20491;-69
2022/06/21 05:36:30;;;;;;;11.70;6.47;;;;;;;12.53;83.33;101545.28;5074382;28;20099;-69
2022/06/21 05:39:03;;;;;;;9.13;6.43;;;;;;;12.59;82.71;101542.53;5074883;28;20029;-69
2022/06/21 05:41:38;;;;;;;12.43;5.80;;;;;;;12.64;81.58;101550.28;5074541;28;20024;-69
2022/06/21 05:44:14;;;;;;;9.63;6.20;;;;;;;12.65;81.57;101539.81;5074348;28;20029;-68
2022/06/21 05:46:47;;;;;;;11.18;6.20;;;;;;;12.74;81.68;101536.13;5074556;28;20056;-69
2022/06/21 05:49:25;;;;;;;9.18;6.10;;;;;;;12.80;82.22;101540.38;5074005;28;20533;-69
2022/06/21 05:51:54;;;;;;;11.48;5.60;;;;;;;12.84;80.61;101561.19;5074665;28;20077;-69
2022/06/21 05:54:26;;;;;;;10.07;5.45;;;;;;;12.81;80.81;101555.16;5074694;28;20051;-69
2022/06/21 05:56:51;;;;;;;9.30;5.38;;;;;;;12.92;81.31;101568.91;5073564;28;20028;-69
2022/06/21 05:59:20;;;;;;;6.80;5.32;;;;;;;12.95;79.81;101566.22;5074686;28;20036;-69
2022/06/21 06:01:52;;;;;;;10.25;5.32;;;;;;;13.04;79.69;101557.28;5074263;28;20021;-69
2022/06/21 06:04:41;;;;;;;8.88;4.80;;;;;;;13.08;79.86;101566.81;5073872;28;20029;-69
2022/06/21 06:07:13;;;;;;;7.53;4.63;;;;;;;13.11;78.98;101577.19;5074630;28;20029;-69
2022/06/21 06:09:43;;;;;;;6.95;4.72;;;;;;;13.18;78.65;101576.16;5074411;28;20049;-69
2022/06/21 06:12:23;;;;;;;11.85;5.10;;;;;;;13.28;78.00;101572.47;5074019;28;20056;-69
2022/06/21 06:14:53;;;;;;;8.82;4.30;;;;;;;13.36;78.30;101580.16;5074250;28;20036;-69
2022/06/21 06:17:28;;;;;;;9.88;4.47;;;;;;;13.42;76.42;101584.38;5073537;28;20036;-69
2022/06/21 06:20:04;;;;;;;9.52;4.32;;;;;;;13.51;77.75;101584.19;5073961;28;20112;-69
2022/06/21 06:22:39;;;;;;;11.02;4.20;;;;;;;13.62;75.58;101583.91;5074176;28;20024;-69
2022/06/21 06:25:31;;;;;;;7.07;3.72;;;;;;;13.67;76.11;101580.28;5073538;28;20025;-69
2022/06/21 06:28:27;;;;;;;10.02;4.32;;;;;;;13.75;76.04;101591.44;5073023;28;20021;-69
2022/06/21 06:31:26;;;;;;;8.27;4.03;;;;;;;13.82;76.45;101589.50;5073627;28;20040;-69
2022/06/21 06:34:14;;;;;;;7.40;4.00;;;;;;;13.92;76.34;101587.53;5069682;28;20763;-69
2022/06/21 06:37:03;;;;;;;6.80;4.38;;;;;;;14.01;75.35;101584.66;5073660;28;20042;-69
2022/06/21 06:39:36;;;;;;;9.00;4.03;;;;;;;14.12;75.39;101574.75;5072871;28;20052;-69
2022/06/21 06:42:24;;;;;;;8.65;5.07;;;;;;;14.23;74.42;101572.72;5074014;28;20088;-69
2022/06/21 06:44:55;;;;;;;8.85;4.78;;;;;;;14.38;73.80;101588.94;5073305;28;20030;-69
2022/06/21 06:47:33;;;;;;;7.20;4.10;;;;;;;14.53;73.15;101591.16;5072846;28;20028;-69
2022/06/21 06:50:17;;;;;;;9.00;4.22;;;;;;;14.62;72.62;101588.28;5073627;28;20460;-69
2022/06/21 06:52:49;;;;;;;10.65;4.43;;;;;;;14.66;72.07;101591.69;5072578;28;20024;-69
2022/06/21 06:55:35;;;;;;;11.27;4.50;;;;;;;14.72;71.87;101597.63;5073392;28;20064;-69
2022/06/21 06:58:11;;;;;;;9.80;4.38;;;;;;;14.83;72.30;101588.56;5073312;28;20448;-69
2022/06/21 07:00:42;;;;;;;7.90;4.38;;;;;;;14.85;70.75;101585.00;5072580;28;20068;-69
2022/06/21 07:03:15;;;;;;;8.00;4.07;;;;;;;14.91;70.67;101592.69;5073247;28;20407;-69
2022/06/21 07:05:49;;;;;;;;;;;;;;;15.00;71.29;101588.91;5073514;28;20025;-69
2022/06/21 07:08:24;;;;;;;9.18;4.43;;;;;;;15.17;69.51;101588.41;5072902;28;20367;-69
2022/06/21 07:10:52;;;;;;;7.40;4.47;;;;;;;15.30;68.16;101588.88;5072893;28;20085;-68
2022/06/21 07:13:18;;;;;;;9.70;4.60;;;;;;;15.40;67.76;101590.31;5073305;28;20021;-69
2022/06/21 07:15:47;;;;;;;10.68;4.60;;;;;;;15.52;68.96;101587.31;5072290;28;20074;-69
2022/06/21 07:18:27;;;;;;;11.27;4.50;;;;;;;15.61;68.27;101578.28;5073133;28;20040;-69
2022/06/21 07:20:53;;;;;;;8.82;4.50;;;;;;;15.66;67.04;101579.88;5072160;28;20060;-69
2022/06/21 07:23:24;;;;;;;10.65;4.82;;;;;;;15.77;67.10;101576.03;5073007;28;20016;-69
2022/06/21 07:25:57;;;;;;;8.68;4.70;;;;;;;15.83;66.94;101574.06;5072787;28;20383;-69
2022/06/21 07:28:36;;;;;;;14.57;6.03;;;;;;;15.94;67.25;101572.84;5072358;28;20025;-69
2022/06/21 07:31:10;;;;;;;11.02;4.75;;;;;;;16.01;66.76;101579.59;5073046;28;20047;-69
2022/06/21 07:33:50;;;;;;;12.73;4.70;;;;;;;16.15;66.86;101590.47;5072531;28;20556;-69
2022/06/21 07:36:20;;;;;;;9.52;4.55;;;;;;;16.21;65.02;101579.75;5072094;28;20361;-69
2022/06/21 07:38:51;;;;;;;10.50;4.80;;;;;;;16.20;64.62;101580.69;5072363;28;20028;-69
2022/06/21 07:41:29;;;;;;;9.85;4.30;;;;;;;16.28;65.32;101585.66;5073028;28;20099;-69
2022/06/21 07:44:01;;;;;;;9.50;4.25;;;;;;;16.31;65.74;101575.03;5072142;28;20487;-69
2022/06/21 07:46:51;;;;;;;6.32;3.83;;;;;;;16.45;65.09;101577.16;5073128;28;20028;-69
2022/06/21 07:49:26;;;;;;;9.82;4.20;;;;;;;16.59;62.97;101573.13;5072049;28;20030;-69
2022/06/21 07:51:57;;;;;;;8.77;4.18;;;;;;;16.77;61.28;101568.09;5072495;28;20107;-69
2022/06/21 07:54:35;;;;;;;14.52;4.03;;;;;;;16.95;61.59;101559.50;5072378;28;20512;-72
2022/06/21 07:57:21;;;;;;;9.27;3.40;;;;;;;17.13;61.85;101560.56;5071837;28;20456;-73
2022/06/21 07:59:52;;;;;;;7.53;4.07;;;;;;;17.26;59.52;101561.78;5072513;28;20052;-72
2022/06/21 08:08:11;;;;;;;6.25;3.72;;;;;;;17.64;59.05;101553.25;5072951;28;20098;-69
2022/06/21 08:10:49;;;;;;;7.80;3.95;;;;;;;17.53;59.32;101556.34;5071568;28;20031;-69
2022/06/21 08:13:16;;;;;;;6.57;4.05;;;;;;;17.42;58.95;101553.28;5072563;28;20484;-69
2022/06/21 08:16:03;;;;;;;6.45;3.72;;;;;;;17.34;59.43;101563.28;5072168;28;20032;-69
2022/06/21 08:18:45;;;;;;;8.50;3.90;;;;;;;17.57;58.12;101560.56;5071758;28;20021;-69
2022/06/21 08:21:17;;;;;;;10.43;4.40;;;;;;;17.81;58.65;101552.56;5072542;28;20033;-69
2022/06/21 08:23:52;;;;;;;18.83;4.37;;;;;;;17.85;56.92;101533.91;5071401;28;20024;-69
2022/06/21 08:26:34;;;;;;;8.85;3.50;;;;;;;18.00;58.07;101524.47;5072636;28;20032;-69
2022/06/21 08:29:08;;;;;;;9.55;3.63;;;;;;;18.25;56.79;101525.13;5072679;28;20103;-69
2022/06/21 08:31:37;;;;;;;8.40;4.32;;;;;;;18.45;54.67;101513.66;5071540;28;20143;-69
2022/06/21 08:34:11;;;;;;;8.38;3.95;;;;;;;18.55;55.65;101510.59;5072425;28;20020;-69
2022/06/21 08:36:44;;;;;;;8.00;4.70;;;;;;;18.59;54.75;101514.81;5072232;28;20036;-69
2022/06/21 08:39:29;;;;;;;7.88;4.55;;;;;;;18.66;55.26;101522.34;5071748;28;20115;-69
2022/06/21 08:42:28;;;;;;;9.10;4.30;;;;;;;18.83;54.87;101507.53;5072040;28;20036;-69
2022/06/21 08:45:41;;;;;;;8.73;4.28;;;;;;;18.97;54.97;101506.91;5071439;28;20029;-69
2022/06/21 08:48:44;;;;;;;11.77;3.60;;;;;;;18.98;54.04;101490.97;5072277;28;20033;-69
2022/06/21 08:51:44;;;;;;;7.17;3.83;;;;;;;18.92;54.02;101481.53;5074002;28;20111;-69
2022/06/21 08:54:25;;;;;;;7.10;4.20;;;;;;;18.78;53.10;101472.59;5075023;28;20040;-69
2022/06/21 08:57:17;;;;;;;9.55;4.35;;;;;;;18.71;53.80;101488.69;5075466;28;20031;-69
2022/06/21 09:00:13;;;;;;;7.55;4.13;;;;;;;18.56;54.27;101491.19;5074812;28;20032;-69
2022/06/21 09:02:55;;;;;;;9.77;5.32;;;;;;;18.41;54.38;101475.13;5075383;28;20033;-69
2022/06/21 09:05:46;;;;;;;8.13;4.80;;;;;;;18.39;55.91;101478.75;5075615;28;20476;-68
2022/06/21 09:08:32;;;;;;;11.35;5.90;;;;;;;18.56;55.09;101475.34;5074948;28;20037;-69
2022/06/21 09:11:15;;;;;;;11.02;5.40;;;;;;;18.68;55.57;101470.34;5075441;28;20388;-69
2022/06/21 09:13:59;;;;;;;9.73;5.35;;;;;;;18.99;54.53;101465.38;5074248;28;20050;-69
2022/06/21 09:16:34;;;;;;;13.88;4.82;;;;;;;19.08;52.92;101457.03;5075669;28;20067;-69
2022/06/21 09:19:06;;;;;;;12.45;5.30;;;;;;;19.16;51.95;101452.19;5075474;28;20025;-69
2022/06/21 09:21:40;;;;;;;11.93;5.82;;;;;;;19.57;52.86;101449.25;5074628;28;20020;-69
2022/06/21 09:24:32;;;;;;;11.07;5.38;;;;;;;19.84;52.14;101450.50;5075421;28;20032;-69
2022/06/21 09:27:05;;;;;;;10.23;5.43;;;;;;;20.00;51.84;101434.66;5070983;28;20491;-69
2022/06/21 09:29:39;;;;;;;9.50;4.32;;;;;;;20.19;51.97;101434.53;5075110;28;20428;-69
2022/06/21 09:32:14;;;;;;;8.88;4.90;;;;;;;20.45;51.42;101429.59;5075209;28;20025;-69
2022/06/21 09:34:54;;;;;;;10.43;4.70;;;;;;;20.35;50.36;101422.16;5074382;28;20025;-69
2022/06/21 09:37:45;;;;;;;6.88;4.20;;;;;;;20.46;51.90;101426.00;5075049;28;20039;-69
2022/06/21 09:40:28;;;;;;;9.27;4.70;;;;;;;20.51;49.54;101445.19;5074966;28;20430;-69
2022/06/21 09:43:16;;;;;;;10.13;4.53;;;;;;;20.66;49.73;101448.75;5073892;28;20052;-69
2022/06/21 09:45:52;;;;;;;7.95;5.05;;;;;;;20.63;48.31;101446.28;5074816;28;20073;-69
2022/06/21 09:48:43;;;;;;;10.35;4.47;;;;;;;20.81;50.12;101435.50;5074225;28;20025;-69
2022/06/21 09:51:23;;;;;;;9.35;4.22;;;;;;;20.92;49.75;101434.88;5074859;28;20072;-69
2022/06/21 09:54:04;;;;;;;8.40;4.07;;;;;;;20.90;49.95;101430.63;5074390;28;20040;-69
2022/06/21 09:56:46;;;;;;;8.80;4.53;;;;;;;20.91;48.82;101424.38;5074038;28;20032;-69
2022/06/21 09:59:23;;;;;;;12.02;4.40;;;;;;;20.81;48.59;101416.97;5074580;28;20093;-70
2022/06/21 10:02:31;;;;;;;9.02;4.50;;;;;;;20.94;48.91;101426.84;5074462;28;20358;-69
2022/06/21 10:05:11;;;;;;;10.32;4.72;;;;;;;21.02;47.75;101429.91;5066871;28;20041;-69
2022/06/21 10:07:55;;;;;;;7.78;4.78;;;;;;;21.16;47.22;101442.38;5074171;28;20472;-69
2022/06/21 10:10:23;;;;;;;8.30;4.32;;;;;;;21.27;46.15;101438.13;5073869;28;20027;-69
2022/06/21 10:13:11;;;;;;;9.40;4.13;;;;;;;21.46;48.01;101429.97;5074270;28;20024;-69
2022/06/21 10:15:48;;;;;;;8.43;4.50;;;;;;;21.49;46.29;101429.81;5074149;28;20103;-70
2022/06/21 10:18:40;;;;;;;9.52;4.15;;;;;;;21.67;46.78;101438.44;5073368;28;20115;-69
2022/06/21 10:21:34;;;;;;;10.73;4.57;;;;;;;21.55;45.07;101448.94;5074556;28;20029;-69
2022/06/21 10:24:17;;;;;;;;;;;;;;;21.84;46.09;101448.03;5073968;28;20040;-69
2022/06/21 10:27:10;;;;;;;7.47;3.83;;;;;;;21.94;45.97;101445.66;5074158;28;19912;-70
2022/06/21 10:30:13;;;;;;;8.65;4.03;;;;;;;22.12;45.44;101438.38;5073902;28;20024;-70
2022/06/21 10:32:58;;;;;;;6.90;4.13;;;;;;;22.04;44.42;101433.53;5072839;28;20028;-70
2022/06/21 10:35:26;;;;;;;5.13;3.30;;;;;;;21.98;43.65;101434.78;5074230;28;20028;-69
2022/06/21 10:38:23;;;;;;;9.05;3.33;;;;;;;22.03;45.50;101446.91;5072735;28;20500;-69
2022/06/21 10:41:18;;;;;;;7.35;3.80;;;;;;;22.11;44.89;101437.53;5065895;28;20485;-70
2022/06/21 10:44:28;;;;;;;7.28;3.42;;;;;;;22.19;46.43;101437.91;5073689;28;20036;-69
2022/06/21 10:47:01;;;;;;;7.47;3.95;;;;;;;22.20;43.62;101442.28;5064648;28;20047;-70
2022/06/21 10:49:51;;;;;;;7.45;4.35;;;;;;;22.40;44.68;101442.84;5073636;28;20029;-70
2022/06/21 10:52:38;;;;;;;9.82;3.72;;;;;;;22.58;45.06;101435.47;5072872;28;20036;-69
2022/06/21 10:55:32;;;;;;;11.35;5.00;;;;;;;22.66;44.15;101444.66;5073545;28;20064;-70
2022/06/21 10:58:41;;;;;;;6.22;4.43;;;;;;;22.83;45.36;101445.38;5073598;28;20048;-70
2022/06/21 11:01:28;;;;;;;10.60;5.00;;;;;;;22.68;43.84;101456.03;5073609;28;20070;-69
2022/06/21 11:04:04;;;;;;;8.70;4.72;;;;;;;22.58;44.24;101462.06;5073090;28;20166;-69
2022/06/21 11:06:58;;;;;;;8.57;4.07;;;;;;;22.61;45.33;101451.22;5072746;28;20027;-69
2022/06/21 11:09:34;;;;;;;9.30;4.25;;;;;;;22.52;44.42;101449.16;5073398;28;20076;-69
2022/06/21 11:15:07;;;;;;;9.57;4.30;;;;;;;22.15;44.70;101449.69;5072447;28;20040;-70
2022/06/21 11:18:19;;;;;;;7.68;4.30;;;;;;;22.35;45.28;101447.56;5072900;28;20028;-69
2022/06/21 11:21:09;;;;;;;7.70;4.53;;;;;;;22.59;44.44;101446.00;5057112;28;20036;-69
2022/06/21 11:23:49;;;;;;;8.00;4.03;;;;;;;22.58;41.53;101444.28;5073051;28;20103;-70
2022/06/21 11:26:31;;;;;;;7.57;3.70;;;;;;;22.79;42.09;101442.06;5073198;28;20368;-69
2022/06/21 11:29:03;;;;;;;5.60;3.55;;;;;;;22.74;42.41;101441.50;5071997;28;20029;-69
2022/06/21 11:31:43;;;;;;;6.82;3.35;;;;;;;22.66;41.74;101442.00;5073194;28;20078;-69
2022/06/21 11:34:29;;;;;;;5.22;3.55;;;;;;;22.72;42.04;101437.22;5072319;28;20039;-70
2022/06/21 11:37:19;;;;;;;9.07;3.75;;;;;;;22.86;41.63;101439.84;5072642;28;20016;-69
2022/06/21 11:40:14;;;;;;;6.03;3.92;;;;;;;23.26;41.91;101431.91;5072816;28;20036;-69
2022/06/21 11:42:55;;;;;;;11.40;4.40;;;;;;;23.65;41.83;101425.69;5072048;28;20028;-69
2022/06/21 11:45:40;;;;;;;8.68;5.60;;;;;;;23.65;41.96;101431.00;5072851;28;20025;-69
2022/06/21 11:48:27;;;;;;;8.98;4.72;;;;;;;23.79;42.23;101430.91;5072132;28;20028;-70
2022/06/21 11:51:30;;;;;;;8.18;5.03;;;;;;;23.97;42.52;101414.59;5072667;28;20032;-70
2022/06/21 11:54:10;;;;;;;7.93;4.82;;;;;;;24.37;41.18;101412.59;5072187;28;20044;-69
2022/06/21 11:57:13;;;;;;;7.35;4.10;;;;;;;26.07;39.13;101410.38;5071855;28;20033;-70
2022/06/21 11:59:50;;;;;;;11.73;4.15;;;;;;;26.56;35.56;101409.13;5072519;28;20115;-70
2022/06/21 12:02:22;;;;;;;6.28;3.38;;;;;;;26.56;37.12;101424.31;5071816;28;20025;-70
2022/06/21 12:05:20;;;;;;;12.90;4.30;;;;;;;28.61;33.88;101409.31;5072481;28;20025;-70
2022/06/21 12:07:57;;;;;;;9.63;4.35;;;;;;;31.43;30.72;101394.63;5072274;28;20125;-70
2022/06/21 12:10:54;;;;;;;8.30;4.15;;;;;;;31.36;29.72;101397.09;5071788;28;20033;-70
2022/06/21 12:13:38;;;;;;;7.53;4.10;;;;;;;29.68;30.96;101403.88;5072117;28;20033;-70
2022/06/21 12:16:20;;;;;;;5.95;3.97;;;;;;;28.39;30.77;101399.69;5071700;28;20547;-70
2022/06/21 12:18:53;;;;;;;5.00;3.23;;;;;;;27.38;33.52;101399.66;5072106;28;20032;-70
2022/06/21 12:21:35;;;;;;;7.25;3.90;;;;;;;26.68;35.40;101401.03;5072303;28;20028;-69